Millenium Air

Millenium Air Since 1998



 METAR AND TAF INFORMATION
METAR FOR LFRS
ADDS - METARS form results

(0858 UTC 19 January 2021)
Data provider http://aviationweather.gov/metar/data/
 
METAR text: LFRS 190830Z AUTO 18006KT 9999 OVC017 06/05 Q1018 NOSIG
Conditions at: LFRS (NANTES/CHATEAU B, FR) observed 0830 UTC 19 January 2021
Temperature: 6.0°C (43°F)
Dewpoint: 5.0°C (41°F) [RH = 93%]
Pressure (altimeter): 30.06 inches Hg (1018.0 mb)
Winds: from the S (180 degrees) at 7 MPH (6 knots; 3.1 m/s)
Visibility: 6 or more miles (10+ km)
Ceiling: 1700 feet AGL
Clouds: overcast cloud deck at 1700 feet AGL
Weather: no significant weather observed at this time

METAR text: LFRS 190800Z AUTO 18007KT 9999 OVC016 06/04 Q1018 NOSIG
Conditions at: LFRS (NANTES/CHATEAU B, FR) observed 0800 UTC 19 January 2021
Temperature: 6.0°C (43°F)
Dewpoint: 4.0°C (39°F) [RH = 87%]
Pressure (altimeter): 30.06 inches Hg (1018.0 mb)
Winds: from the S (180 degrees) at 8 MPH (7 knots; 3.6 m/s)
Visibility: 6 or more miles (10+ km)
Ceiling: 1600 feet AGL
Clouds: overcast cloud deck at 1600 feet AGL
Weather: no significant weather observed at this time

Forecast for: LFRS (NANTES/CHATEAU B, FR)
Text: TAF LFRS 190500Z 1906/2012 19010KT 9999 OVC020
Forecast period: 0600 UTC 19 January 2021 to 0600 UTC 20 January 2021
Forecast type: FROM: standard forecast or significant change
Winds: from the S (190 degrees) at 12 MPH (10 knots; 5.1 m/s)
Visibility: 6 or more miles (10+ km)
Ceiling: 2000 feet AGL
Clouds: overcast cloud deck at 2000 feet AGL
Weather: no significant weather forecast for this period
Text: TEMPO 2000/2012 4500 -RA
Forecast period: 0000 to 1200 UTC 20 January 2021
Forecast type: TEMPORARY: The following changes expected for less than half the time period
Visibility: 2.80 miles (4.51 km)
Ceiling: unknown
Clouds: missing
Weather: -RA  (light rain)
Text: BECMG 2006/2008 17015G25KT
Forecast period: 0600 to 1200 UTC 20 January 2021
Forecast type: BECOMING: Conditions expected to become as follows by 0800 UTC 20 January 2021
Winds: from the S (170 degrees) at 17 MPH (15 knots; 7.7 m/s)
gusting to 29 MPH (25 knots; 12.9 m/s)
Visibility: 6 or more miles (10+ km)
Ceiling: 2000 feet AGL
Clouds: overcast cloud deck at 2000 feet AGL
Weather: no significant weather forecast for this period

 AIRPORT MAP

 RUNWAY INFORMATION
Runway 03 Runway length 9514 ft Runway width 148 ft
Runway elevation 73 ft Runway displaced threshold 0 ft Runway heading 28
Runway 21 Runway length 9514 ft Runway width 148 ft
Runway elevation 86 ft Runway displaced threshold 694 ft Runway heading 208

 AIRPORT FREQUENCIES
Type APP Name APP Frequency 130.275 MHZ
Type ATIS Name ATIS Frequency 126.925 MHZ
Type GND Name GND Frequency 121.875 MHZ
Type INFO Name INFO Frequency 129.875 MHZ
Type TWR Name TWR Frequency 118.65 MHZ

 AIRPORT NEAR NAVIGATION AIDS
Type NDB Name Nantes Frequency 369 KHZ
Type VOR-DME Name Nantes Frequency 115500 KHZ